To NAV CANADA Home Page Login to a new session Search on AWWS site Feedback and Comments Disclaimer Vers la page française équivalente Tips FAQ What's new on the site To the Forecasts and Observations / NOTAM section To "File a Flight Plan" website Publications and other links Update of the User's profile FIC Telephone Numbers My Weather Data Folder Route Weather Data Regional Weather Data Local Weather Data To the Forecasts and Observations / NOTAM section
Request Generated 08/29/2015 at 18:51:28 UTC . Weather information available at that time is displayed.

METAR/TAF

BAKER LAKE/NU    

METAR CYBK 291800Z 10010KT 20SM SCT140 BKN230 12/07 A2985 RMK AC4CI2
SLP108=
METAR CYBK 291700Z 10010KT 20SM SCT140 BKN230 11/08 A2984 RMK AC4CI3
SLP107=
METAR CYBK 291600Z 11011KT 20SM SCT120 BKN230 11/06 A2984 RMK AC3CI4
SLP107=

TAF CYBK 291738Z 2918/3006 10010KT P6SM SCT120 BKN230
RMK NXT FCST BY 300000Z=
Your time UTC time
Weather data provided by Environment Canada and NAV CANADA